Time;durP1;ratioP1;P1;durP2;ratioP2;P2;SDS_P1;SDS_P2;PMS_P1;PMS_P2;Temp;Humidity;BMP_temperature;BMP_pressure;BME280_temperature;BME280_humidity;BME280_pressure;Samples;Min_cycle;Max_cycle;Signal;HPM_P1;HPM_P2
2022/09/05 00:02:01;;;;;;;1.30;1.10;;;21.60;43.50;;;;;;5014452;28;20399;-70
2022/09/05 00:04:36;;;;;;;1.30;1.20;;;21.40;43.40;;;;;;5020157;28;20785;-70
2022/09/05 00:07:34;;;;;;;1.30;1.30;;;21.50;43.00;;;;;;5017389;28;20198;-70
2022/09/05 00:10:09;;;;;;;1.30;1.10;;;21.60;43.80;;;;;;5013763;28;20484;-70
2022/09/05 00:12:36;;;;;;;1.30;1.10;;;21.40;44.20;;;;;;5015390;28;20786;-71
2022/09/05 00:15:10;;;;;;;1.30;1.20;;;21.20;44.50;;;;;;5008788;28;20439;-70
2022/09/05 00:17:55;;;;;;;1.30;1.30;;;21.10;45.60;;;;;;5015448;28;21040;-70
2022/09/05 00:20:37;;;;;;;1.30;1.20;;;21.20;44.70;;;;;;5014194;28;20443;-69
2022/09/05 00:23:29;;;;;;;1.30;1.10;;;21.20;45.00;;;;;;5014334;28;20430;-70
2022/09/05 00:26:37;;;;;;;1.30;1.20;;;21.10;44.90;;;;;;5009356;28;20465;-70
2022/09/05 00:29:05;;;;;;;1.30;1.10;;;20.90;45.50;;;;;;4981898;28;20440;-70
2022/09/05 00:31:36;;;;;;;1.30;1.07;;;21.10;44.40;;;;;;4976125;28;20433;-70
2022/09/05 00:34:26;;;;;;;1.30;1.23;;;21.30;43.60;;;;;;4969593;28;20442;-71
2022/09/05 00:36:53;;;;;;;1.30;1.10;;;21.30;44.10;;;;;;4970887;28;20462;-71
2022/09/05 00:39:28;;;;;;;1.30;1.30;;;21.30;44.30;;;;;;4976322;28;20906;-71
2022/09/05 00:41:58;;;;;;;1.30;1.20;;;21.10;44.60;;;;;;4975695;28;21078;-70
2022/09/05 00:44:28;;;;;;;1.30;1.13;;;21.10;44.60;;;;;;4981697;28;20498;-70
2022/09/05 00:46:54;;;;;;;1.30;1.23;;;20.90;45.50;;;;;;4969674;28;20495;-70
2022/09/05 00:49:48;;;;;;;1.30;1.30;;;21.00;46.50;;;;;;4970901;28;21018;-69
2022/09/05 00:52:20;;;;;;;1.30;1.20;;;20.90;46.80;;;;;;4985802;28;20190;-70
2022/09/05 00:55:21;;;;;;;1.30;1.10;;;21.00;45.70;;;;;;4973260;28;20429;-70
2022/09/05 00:57:58;;;;;;;1.30;1.20;;;20.90;45.60;;;;;;4973675;28;20524;-70
2022/09/05 01:00:45;;;;;;;1.30;1.10;;;20.80;46.20;;;;;;4974400;28;20862;-70
2022/09/05 01:03:25;;;;;;;1.30;1.10;;;20.70;46.70;;;;;;5000644;28;20419;-70
2022/09/05 01:06:13;;;;;;;1.30;1.20;;;20.70;46.80;;;;;;5020832;28;20449;-71
2022/09/05 01:08:56;;;;;;;1.30;1.30;;;20.60;48.60;;;;;;5012236;28;20427;-70
2022/09/05 01:11:26;;;;;;;1.30;1.20;;;20.50;47.50;;;;;;5024438;28;21725;-70
2022/09/05 01:14:09;;;;;;;1.30;1.20;;;20.50;48.00;;;;;;5022180;28;20928;-70
2022/09/05 01:16:40;;;;;;;1.30;1.10;;;20.60;47.10;;;;;;5022470;28;20822;-70
2022/09/05 01:19:18;;;;;;;1.30;1.10;;;20.80;47.00;;;;;;5020970;28;20963;-69
2022/09/05 01:22:25;;;;;;;1.30;1.20;;;20.60;46.70;;;;;;5014634;28;20420;-70
2022/09/05 01:25:25;;;;;;;1.30;1.17;;;20.60;47.30;;;;;;4954235;28;20422;-71
2022/09/05 01:28:14;;;;;;;1.30;1.20;;;20.50;47.40;;;;;;4961750;28;20487;-70
2022/09/05 01:31:08;;;;;;;1.30;1.10;;;20.30;47.70;;;;;;4958421;28;20830;-71
2022/09/05 01:33:53;;;;;;;1.30;1.20;;;20.40;47.90;;;;;;4962729;28;20512;-69
2022/09/05 01:36:48;;;;;;;1.30;1.10;;;20.50;47.80;;;;;;4962037;28;20894;-70
2022/09/05 01:39:51;;;;;;;1.30;1.17;;;20.70;46.40;;;;;;4967262;28;20994;-70
2022/09/05 01:42:35;;;;;;;1.70;1.37;;;20.40;47.50;;;;;;4966423;28;20487;-70
2022/09/05 01:45:22;;;;;;;1.30;1.10;;;20.30;47.80;;;;;;4955074;28;20455;-71
2022/09/05 01:48:11;;;;;;;1.30;1.27;;;20.30;48.10;;;;;;4965576;28;20467;-71
2022/09/05 01:51:10;;;;;;;1.30;1.10;;;20.30;47.80;;;;;;4965467;28;20435;-70
2022/09/05 01:53:45;;;;;;;1.30;1.20;;;20.20;47.60;;;;;;4964588;28;20453;-70
2022/09/05 01:56:32;;;;;;;1.30;1.10;;;20.20;47.70;;;;;;4972383;28;20502;-70
2022/09/05 01:59:03;;;;;;;1.30;1.20;;;20.30;47.80;;;;;;4972157;28;20496;-70
2022/09/05 02:01:54;;;;;;;1.30;1.10;;;20.20;48.10;;;;;;4991359;28;20437;-71
2022/09/05 02:04:28;;;;;;;1.30;1.10;;;20.10;49.00;;;;;;5016271;28;20961;-70
2022/09/05 02:07:31;;;;;;;1.30;1.17;;;20.20;48.60;;;;;;5019966;28;20444;-70
2022/09/05 02:09:59;;;;;;;1.30;1.10;;;20.30;48.30;;;;;;5001301;28;20446;-71
2022/09/05 02:12:54;;;;;;;1.30;1.20;;;20.20;47.60;;;;;;5017360;28;20798;-70
2022/09/05 02:15:27;;;;;;;1.30;1.20;;;20.30;48.00;;;;;;5022453;28;20433;-71
2022/09/05 02:17:57;;;;;;;1.30;1.10;;;20.20;48.90;;;;;;5011849;28;21764;-71
2022/09/05 02:20:42;;;;;;;1.30;1.10;;;20.00;49.00;;;;;;5011218;28;20474;-70
2022/09/05 02:23:23;;;;;;;1.30;1.20;;;20.10;48.90;;;;;;5009681;28;20490;-70
2022/09/05 02:26:06;;;;;;;1.30;1.20;;;20.00;48.50;;;;;;5013981;28;20524;-70
2022/09/05 02:28:50;;;;;;;1.30;1.20;;;20.00;49.00;;;;;;5008408;28;20421;-71
2022/09/05 02:31:47;;;;;;;1.30;1.10;;;20.00;48.90;;;;;;4999571;28;20429;-70
2022/09/05 02:34:34;;;;;;;1.30;1.10;;;20.10;48.30;;;;;;5018332;28;20425;-69
2022/09/05 02:37:11;;;;;;;1.30;1.20;;;20.20;47.70;;;;;;5015882;28;20454;-70
2022/09/05 02:40:02;;;;;;;1.30;1.30;;;20.00;47.60;;;;;;5007282;28;20489;-70
2022/09/05 02:43:12;;;;;;;1.30;1.10;;;19.90;49.00;;;;;;5011883;28;20980;-70
2022/09/05 02:45:59;;;;;;;1.30;1.20;;;19.80;48.50;;;;;;5005301;28;20464;-70
2022/09/05 02:48:58;;;;;;;1.30;1.20;;;19.70;49.30;;;;;;5009933;28;20463;-70
2022/09/05 02:51:54;;;;;;;1.30;1.10;;;19.70;49.50;;;;;;5008792;28;20841;-71
2022/09/05 02:54:27;;;;;;;1.30;1.10;;;19.60;49.00;;;;;;5013852;28;20429;-72
2022/09/05 02:57:21;;;;;;;1.30;1.10;;;19.70;49.60;;;;;;5019513;28;20448;-70
2022/09/05 03:00:04;;;;;;;1.30;1.20;;;19.70;49.50;;;;;;5008662;28;20473;-70
2022/09/05 03:03:02;;;;;;;1.30;1.10;;;19.70;48.80;;;;;;5006326;28;20431;-70
2022/09/05 03:06:03;;;;;;;1.30;1.10;;;19.70;49.30;;;;;;5016735;28;20439;-70
2022/09/05 03:09:15;;;;;;;1.30;1.13;;;19.60;48.10;;;;;;5005341;28;20470;-71
2022/09/05 03:12:17;;;;;;;1.30;1.17;;;19.50;50.00;;;;;;5017856;28;20439;-70
2022/09/05 03:15:19;;;;;;;1.30;1.20;;;19.50;49.40;;;;;;5013820;28;20440;-70
2022/09/05 03:17:47;;;;;;;1.30;1.13;;;19.70;48.50;;;;;;5013033;28;21025;-70
2022/09/05 03:20:43;;;;;;;1.30;1.10;;;19.90;47.10;;;;;;5027435;28;20451;-70
2022/09/05 03:23:29;;;;;;;1.30;1.20;;;19.70;47.90;;;;;;5023422;28;20448;-71
2022/09/05 03:26:10;;;;;;;1.30;1.00;;;19.60;48.40;;;;;;5032501;28;20465;-70
2022/09/05 03:29:03;;;;;;;1.30;1.20;;;19.50;49.20;;;;;;5019696;28;20442;-70
2022/09/05 03:31:59;;;;;;;1.30;1.23;;;19.30;49.20;;;;;;5020668;28;20415;-70
2022/09/05 03:34:44;;;;;;;1.30;1.20;;;19.40;49.30;;;;;;5030808;28;20946;-70
2022/09/05 03:37:41;;;;;;;1.30;1.20;;;19.40;50.00;;;;;;5023869;28;20436;-70
2022/09/05 03:40:35;;;;;;;1.30;1.20;;;19.40;49.50;;;;;;5004629;28;20468;-70
2022/09/05 03:43:19;;;;;;;1.30;1.13;;;19.40;49.90;;;;;;5013887;28;20415;-70
2022/09/05 03:45:59;;;;;;;1.30;1.20;;;19.40;49.30;;;;;;5008764;28;20429;-70
2022/09/05 03:48:52;;;;;;;1.30;1.13;;;19.50;49.60;;;;;;5024913;28;20457;-70
2022/09/05 03:51:23;;;;;;;1.30;1.20;;;19.40;49.20;;;;;;5031448;28;20849;-70
2022/09/05 03:54:12;;;;;;;1.30;1.13;;;19.40;49.10;;;;;;5022432;28;20784;-70
2022/09/05 03:56:40;;;;;;;1.30;1.10;;;19.40;48.70;;;;;;5019515;28;20943;-70
2022/09/05 03:59:21;;;;;;;1.30;1.10;;;19.50;48.90;;;;;;5018778;28;20458;-70
2022/09/05 04:01:52;;;;;;;1.30;1.20;;;19.60;48.90;;;;;;5012114;28;20440;-70
2022/09/05 04:04:41;;;;;;;1.30;1.20;;;19.40;49.20;;;;;;5018680;28;20419;-70
2022/09/05 04:07:31;;;;;;;1.30;1.20;;;19.40;49.40;;;;;;5015461;28;20519;-69
2022/09/05 04:10:06;;;;;;;1.30;1.00;;;19.40;49.60;;;;;;5007161;28;20424;-70
2022/09/05 04:12:48;;;;;;;1.30;1.20;;;19.30;49.50;;;;;;5019999;28;20433;-70
2022/09/05 04:15:32;;;;;;;1.30;1.10;;;19.40;49.80;;;;;;5014339;28;20467;-70
2022/09/05 04:18:17;;;;;;;1.30;1.20;;;19.40;49.30;;;;;;5018313;28;20507;-70
2022/09/05 04:20:51;;;;;;;1.30;1.20;;;19.20;49.10;;;;;;5023953;28;20420;-70
2022/09/05 04:23:57;;;;;;;1.30;1.10;;;19.40;49.30;;;;;;5026745;28;20416;-70
2022/09/05 04:26:47;;;;;;;1.30;1.10;;;19.30;49.20;;;;;;4998834;28;20990;-71
2022/09/05 04:29:55;;;;;;;1.30;1.10;;;19.20;49.10;;;;;;5034430;28;20506;-70
2022/09/05 04:32:46;;;;;;;1.30;1.13;;;19.10;49.90;;;;;;5011816;28;20427;-69
2022/09/05 04:35:38;;;;;;;1.30;1.10;;;19.00;50.30;;;;;;5012539;28;20422;-70
2022/09/05 04:38:15;;;;;;;1.30;1.10;;;18.80;52.40;;;;;;5004239;28;20517;-70
2022/09/05 04:40:47;;;;;;;1.30;1.10;;;19.10;51.00;;;;;;5020914;28;20430;-70
2022/09/05 04:43:30;;;;;;;1.30;1.10;;;19.10;49.90;;;;;;5031377;28;20827;-69
2022/09/05 04:46:29;;;;;;;1.30;1.10;;;19.10;49.60;;;;;;5013441;28;20501;-70
2022/09/05 04:49:05;;;;;;;1.30;1.10;;;19.10;50.50;;;;;;5005326;28;20524;-71
2022/09/05 04:51:55;;;;;;;1.30;1.10;;;19.20;49.30;;;;;;5074241;22;20560;-67
2022/09/05 04:54:20;;;;;;;1.73;1.60;;;18.80;51.20;;;;;;5067821;28;20437;-68
2022/09/05 04:56:52;;;;;;;1.30;1.10;;;18.90;51.30;;;;;;5069272;28;20437;-68
2022/09/05 04:59:31;;;;;;;1.30;1.10;;;19.10;50.20;;;;;;5067689;28;20201;-68
2022/09/05 05:02:20;;;;;;;1.30;1.20;;;19.10;50.20;;;;;;5061110;28;20457;-68
2022/09/05 05:04:47;;;;;;;1.30;1.10;;;19.10;51.10;;;;;;5065006;28;20467;-68
2022/09/05 05:07:24;;;;;;;1.30;1.20;;;19.40;48.70;;;;;;5053255;28;20828;-68
2022/09/05 05:10:02;;;;;;;1.30;1.20;;;19.30;49.20;;;;;;5070494;28;20500;-67
2022/09/05 05:13:07;;;;;;;1.30;1.20;;;19.30;49.50;;;;;;5067956;28;20666;-67
2022/09/05 05:15:43;;;;;;;1.30;1.20;;;19.20;49.70;;;;;;5065860;28;20513;-68
2022/09/05 05:18:21;;;;;;;1.30;1.10;;;19.10;50.00;;;;;;5060045;28;20416;-68
2022/09/05 05:21:02;;;;;;;1.30;1.20;;;19.20;49.80;;;;;;5063174;28;20438;-68
2022/09/05 05:23:53;;;;;;;1.30;1.20;;;19.30;49.60;;;;;;5061263;28;20426;-68
2022/09/05 05:26:35;;;;;;;1.30;1.13;;;19.20;49.70;;;;;;5059569;28;20991;-67
2022/09/05 05:29:31;;;;;;;1.30;1.10;;;19.10;49.60;;;;;;5058365;28;20415;-68
2022/09/05 05:32:01;;;;;;;1.30;1.10;;;19.00;51.00;;;;;;5064893;28;20457;-68
2022/09/05 05:34:35;;;;;;;1.30;1.10;;;19.10;50.90;;;;;;5059056;28;21187;-67
2022/09/05 05:37:14;;;;;;;1.30;1.17;;;19.30;49.70;;;;;;5059501;28;20417;-68
2022/09/05 05:39:45;;;;;;;1.30;1.10;;;19.50;50.50;;;;;;5066471;28;20467;-68
2022/09/05 05:42:24;;;;;;;1.30;1.10;;;19.50;49.80;;;;;;5054958;28;21035;-68
2022/09/05 05:44:53;;;;;;;1.30;1.20;;;19.60;50.10;;;;;;5053946;28;20459;-68
2022/09/05 05:47:27;;;;;;;1.30;1.10;;;19.60;49.30;;;;;;5059305;28;20448;-68
2022/09/05 05:50:26;;;;;;;1.30;1.10;;;19.60;49.40;;;;;;5060436;28;20434;-68
2022/09/05 05:53:04;;;;;;;1.30;1.10;;;19.70;49.20;;;;;;5055628;28;20446;-67
2022/09/05 05:56:02;;;;;;;1.30;1.20;;;19.60;48.90;;;;;;5061362;28;20744;-67
2022/09/05 05:59:02;;;;;;;1.30;1.10;;;19.40;50.50;;;;;;5061102;28;20458;-67
2022/09/05 06:02:00;;;;;;;1.30;1.17;;;19.60;50.20;;;;;;5068011;28;20479;-67
2022/09/05 06:04:50;;;;;;;1.30;1.20;;;19.70;50.40;;;;;;5064114;28;20927;-67
2022/09/05 06:07:24;;;;;;;1.30;1.10;;;20.00;49.20;;;;;;5060880;28;20961;-67
2022/09/05 06:10:15;;;;;;;1.30;1.20;;;20.00;49.80;;;;;;5067791;28;20429;-67
2022/09/05 06:13:11;;;;;;;1.30;1.13;;;20.00;50.00;;;;;;5065851;28;20459;-67
2022/09/05 06:16:12;;;;;;;1.30;1.20;;;20.10;50.30;;;;;;5059361;28;20827;-67
2022/09/05 06:19:15;;;;;;;1.30;1.10;;;20.10;48.90;;;;;;5064774;28;20466;-67
2022/09/05 06:21:48;;;;;;;1.30;1.10;;;20.10;48.80;;;;;;5059381;28;20455;-67
2022/09/05 06:24:41;;;;;;;1.30;1.20;;;20.00;48.90;;;;;;5067788;28;20794;-67
2022/09/05 06:27:10;;;;;;;1.30;1.10;;;20.10;49.00;;;;;;5055264;28;20551;-67
2022/09/05 06:29:41;;;;;;;1.30;1.10;;;20.00;49.00;;;;;;5066939;28;20427;-71
2022/09/05 06:32:28;;;;;;;1.30;1.17;;;19.90;48.90;;;;;;5062709;28;20843;-70
2022/09/05 06:35:13;;;;;;;1.30;1.20;;;19.20;52.30;;;;;;5069645;28;20546;-71
2022/09/05 06:38:00;;;;;;;1.30;1.10;;;19.40;51.70;;;;;;5067613;28;20458;-70
2022/09/05 06:40:37;;;;;;;1.30;1.23;;;19.80;50.20;;;;;;5065947;28;20988;-70
2022/09/05 06:43:15;;;;;;;1.30;1.10;;;20.10;50.10;;;;;;5072584;28;20431;-70
2022/09/05 06:45:52;;;;;;;1.30;1.20;;;20.50;49.10;;;;;;5068093;28;20936;-67
2022/09/05 06:48:27;;;;;;;1.30;1.20;;;20.70;48.80;;;;;;5069025;28;20423;-67
2022/09/05 06:51:33;;;;;;;1.27;1.20;;;20.70;48.30;;;;;;5069649;28;20960;-68
2022/09/05 06:54:27;;;;;;;1.30;1.20;;;20.80;47.60;;;;;;5069767;28;20413;-67
2022/09/05 06:57:11;;;;;;;1.30;1.20;;;20.90;46.90;;;;;;5072031;28;20465;-67
2022/09/05 07:00:07;;;;;;;1.30;1.20;;;20.30;46.60;;;;;;5060392;28;20511;-67
2022/09/05 07:02:54;;;;;;;1.30;1.10;;;20.70;45.90;;;;;;5062117;28;20498;-67
2022/09/05 07:05:22;;;;;;;1.30;1.10;;;20.60;47.40;;;;;;5067988;28;20450;-67
2022/09/05 07:07:56;;;;;;;1.30;1.10;;;20.50;46.30;;;;;;5067783;28;20421;-67
2022/09/05 07:10:42;;;;;;;1.30;1.20;;;20.60;47.30;;;;;;5069818;28;20473;-67
2022/09/05 07:13:17;;;;;;;1.30;1.17;;;20.70;45.70;;;;;;5069667;28;20439;-67
2022/09/05 07:15:55;;;;;;;1.30;1.20;;;20.60;46.60;;;;;;5069802;28;20451;-66
2022/09/05 07:18:42;;;;;;;1.30;1.17;;;20.10;49.10;;;;;;5071162;28;20441;-66
2022/09/05 07:21:43;;;;;;;1.30;1.20;;;20.20;49.10;;;;;;5066603;28;20478;-67
2022/09/05 07:24:14;;;;;;;1.30;1.10;;;20.00;50.60;;;;;;5040339;28;20468;-66
2022/09/05 07:26:43;;;;;;;1.30;1.20;;;20.00;50.80;;;;;;5061759;28;20439;-67
2022/09/05 07:29:15;;;;;;;1.30;1.20;;;19.90;51.90;;;;;;5064064;28;20512;-67
2022/09/05 07:31:50;;;;;;;1.30;1.10;;;20.10;51.00;;;;;;5061585;28;20466;-66
2022/09/05 07:34:26;;;;;;;1.30;1.10;;;20.30;50.10;;;;;;5068437;28;20492;-67
2022/09/05 07:37:00;;;;;;;1.30;1.13;;;20.60;50.10;;;;;;5067706;28;20430;-67
2022/09/05 07:39:30;;;;;;;1.30;1.10;;;20.90;47.30;;;;;;5067916;28;20469;-67
2022/09/05 07:42:03;;;;;;;1.30;1.17;;;20.80;48.80;;;;;;5068282;28;20454;-66
2022/09/05 07:44:35;;;;;;;1.27;1.10;;;21.00;46.70;;;;;;5068670;28;20422;-66
2022/09/05 07:47:07;;;;;;;1.27;1.10;;;21.40;47.30;;;;;;5064976;28;20505;-66
2022/09/05 07:49:35;;;;;;;1.27;1.10;;;21.80;45.60;;;;;;5064341;28;20425;-67
2022/09/05 07:52:28;;;;;;;1.30;1.10;;;21.90;44.00;;;;;;5059171;28;20470;-67
2022/09/05 07:54:57;;;;;;;1.30;1.13;;;21.60;45.40;;;;;;5066901;28;20469;-66
2022/09/05 07:57:35;;;;;;;1.30;1.30;;;21.80;44.20;;;;;;5068059;28;20437;-67
2022/09/05 08:00:10;;;;;;;1.30;1.13;;;21.40;46.00;;;;;;5066204;28;20480;-67
2022/09/05 08:02:45;;;;;;;1.30;1.10;;;21.60;46.40;;;;;;5066493;28;20473;-66
2022/09/05 08:05:15;;;;;;;1.30;1.10;;;22.10;44.60;;;;;;5069798;28;20420;-67
2022/09/05 08:07:44;;;;;;;1.30;1.20;;;22.60;43.90;;;;;;5071804;28;20929;-67
2022/09/05 08:10:28;;;;;;;1.30;1.10;;;21.90;44.30;;;;;;5063552;28;20768;-67
2022/09/05 08:13:03;;;;;;;1.27;1.10;;;22.20;43.70;;;;;;5062291;28;20538;-67
2022/09/05 08:15:29;;;;;;;1.30;1.10;;;21.80;43.60;;;;;;5052671;28;20435;-67
2022/09/05 08:18:20;;;;;;;1.20;1.20;;;22.10;45.20;;;;;;5061262;28;20431;-67
2022/09/05 08:21:06;;;;;;;1.30;1.13;;;22.70;44.20;;;;;;5063295;28;20452;-67
2022/09/05 08:23:50;;;;;;;1.30;1.10;;;22.80;41.40;;;;;;5069312;28;20447;-67
2022/09/05 08:26:56;;;;;;;1.30;1.17;;;23.00;41.40;;;;;;5060197;28;20914;-67
2022/09/05 08:29:38;;;;;;;1.30;1.20;;;23.20;40.10;;;;;;5052495;28;20434;-67
2022/09/05 08:32:08;;;;;;;1.30;1.20;;;23.10;40.50;;;;;;5062404;28;21044;-67
2022/09/05 08:34:37;;;;;;;1.20;1.17;;;22.60;41.60;;;;;;5062375;28;20446;-67
2022/09/05 08:37:04;;;;;;;1.27;1.10;;;23.10;43.40;;;;;;5067089;28;20427;-67
2022/09/05 08:39:32;;;;;;;1.20;1.10;;;23.50;40.80;;;;;;5070012;28;20515;-67
2022/09/05 08:42:03;;;;;;;1.30;1.20;;;23.80;39.60;;;;;;5062415;28;20440;-67
2022/09/05 08:44:37;;;;;;;1.20;1.10;;;23.50;40.00;;;;;;5062589;28;20426;-67
2022/09/05 08:47:18;;;;;;;1.20;1.20;;;24.00;39.50;;;;;;5069971;28;20417;-68
2022/09/05 08:50:12;;;;;;;1.30;1.20;;;24.30;38.60;;;;;;5055705;28;20928;-67
2022/09/05 08:53:01;;;;;;;1.27;1.10;;;24.30;37.70;;;;;;5065985;28;20454;-67
2022/09/05 08:55:51;;;;;;;1.30;1.20;;;24.00;39.00;;;;;;5063508;28;20468;-67
2022/09/05 08:58:33;;;;;;;1.20;1.10;;;24.00;39.20;;;;;;5070504;28;20415;-67
2022/09/05 09:01:01;;;;;;;1.30;1.23;;;24.20;38.80;;;;;;5070190;28;20828;-67
2022/09/05 09:03:55;;;;;;;1.30;1.10;;;23.70;39.20;;;;;;5056252;28;20455;-67
2022/09/05 09:06:48;;;;;;;1.30;1.23;;;23.80;39.80;;;;;;5060656;28;20446;-67
2022/09/05 09:09:22;;;;;;;1.20;1.20;;;24.20;39.70;;;;;;5067756;28;20464;-67
2022/09/05 09:11:55;;;;;;;1.20;1.10;;;24.70;38.40;;;;;;5063807;28;20443;-67
2022/09/05 09:14:40;;;;;;;1.20;1.10;;;24.60;37.80;;;;;;5056594;28;20579;-67
2022/09/05 09:17:39;;;;;;;1.30;1.20;;;24.50;38.00;;;;;;5066003;28;20431;-67
2022/09/05 09:20:11;;;;;;;1.30;1.30;;;25.10;36.20;;;;;;5069700;28;20457;-68
2022/09/05 09:23:02;;;;;;;1.30;1.20;;;24.80;37.60;;;;;;5066182;28;20452;-67
2022/09/05 09:25:38;;;;;;;1.30;1.20;;;25.30;36.30;;;;;;5058816;28;20442;-67
2022/09/05 09:28:25;;;;;;;1.30;1.20;;;25.30;35.60;;;;;;5065217;28;20946;-67
2022/09/05 09:31:06;;;;;;;1.20;1.17;;;25.20;36.20;;;;;;5056685;28;20483;-67
2022/09/05 09:33:43;;;;;;;1.20;1.13;;;24.90;37.00;;;;;;5066108;28;20402;-67
2022/09/05 09:36:36;;;;;;;1.20;1.00;;;25.20;36.20;;;;;;5055171;28;20428;-67
2022/09/05 09:39:21;;;;;;;1.30;1.10;;;26.00;34.90;;;;;;5063915;28;21084;-67
2022/09/05 09:42:13;;;;;;;1.23;1.20;;;25.90;34.50;;;;;;5064421;28;20437;-67
2022/09/05 09:45:03;;;;;;;1.23;1.20;;;25.80;35.00;;;;;;5058137;28;20425;-67
2022/09/05 09:47:51;;;;;;;1.20;1.10;;;25.70;36.30;;;;;;5069961;28;20496;-67
2022/09/05 09:50:32;;;;;;;1.30;1.20;;;26.10;34.30;;;;;;5052979;28;20827;-67
2022/09/05 09:53:32;;;;;;;1.20;1.10;;;26.50;34.30;;;;;;5054456;28;20450;-67
2022/09/05 09:56:08;;;;;;;1.20;1.20;;;26.90;32.30;;;;;;5063952;28;20436;-67
2022/09/05 09:59:15;;;;;;;1.30;1.20;;;27.10;32.00;;;;;;5066370;28;20457;-67
2022/09/05 10:02:06;;;;;;;1.20;1.20;;;27.20;33.80;;;;;;5005088;28;20487;-67
2022/09/05 10:05:00;;;;;;;1.30;1.20;;;27.30;31.00;;;;;;5061448;28;20437;-67
2022/09/05 10:07:52;;;;;;;1.30;1.20;;;26.50;31.30;;;;;;5062556;28;20429;-68
2022/09/05 10:10:39;;;;;;;1.30;1.20;;;26.40;33.40;;;;;;5058145;28;20944;-67
2022/09/05 10:13:18;;;;;;;1.20;1.13;;;26.30;33.60;;;;;;5060948;28;20432;-67
2022/09/05 10:15:55;;;;;;;1.20;1.13;;;26.80;33.00;;;;;;5056552;28;21100;-67
2022/09/05 10:18:53;;;;;;;1.20;1.20;;;26.20;33.90;;;;;;5061165;28;20480;-67
2022/09/05 10:21:31;;;;;;;1.20;1.00;;;26.60;32.70;;;;;;5068726;28;20440;-67
2022/09/05 10:24:15;;;;;;;1.20;1.20;;;26.90;33.60;;;;;;5065997;28;20467;-67
2022/09/05 10:26:58;;;;;;;1.20;1.10;;;26.90;32.70;;;;;;5065156;28;20413;-67
2022/09/05 10:29:48;;;;;;;1.20;1.10;;;27.50;31.10;;;;;;5060868;28;20486;-67
2022/09/05 10:32:24;;;;;;;1.20;1.10;;;28.10;30.00;;;;;;5056477;28;20445;-66
2022/09/05 10:35:11;;;;;;;1.97;1.33;;;27.90;29.90;;;;;;5058080;28;20445;-67
2022/09/05 10:37:51;;;;;;;1.20;1.20;;;28.40;32.30;;;;;;5062762;28;20486;-67
2022/09/05 10:40:22;;;;;;;1.20;1.10;;;29.10;28.60;;;;;;5059248;28;20960;-67
2022/09/05 10:43:08;;;;;;;1.20;1.10;;;29.30;27.40;;;;;;5066097;28;20511;-68
2022/09/05 10:45:55;;;;;;;1.20;1.20;;;30.00;27.80;;;;;;5066723;28;20479;-68
2022/09/05 10:48:21;;;;;;;1.20;1.10;;;30.20;25.20;;;;;;5060200;28;20488;-68
2022/09/05 10:51:28;;;;;;;1.20;1.00;;;30.40;25.50;;;;;;5058584;28;20485;-67
2022/09/05 10:53:53;;;;;;;1.20;1.10;;;30.40;25.00;;;;;;5029077;28;20438;-67
2022/09/05 10:56:25;;;;;;;1.20;1.00;;;30.50;24.30;;;;;;5040914;28;20801;-67
2022/09/05 10:59:03;;;;;;;1.20;1.10;;;31.20;24.30;;;;;;5041734;28;20207;-68
2022/09/05 11:01:34;;;;;;;1.20;1.10;;;31.70;21.90;;;;;;5037674;28;20457;-68
2022/09/05 11:04:14;;;;;;;1.20;1.10;;;31.80;21.10;;;;;;5039513;28;20430;-68
2022/09/05 11:06:52;;;;;;;2.67;1.77;;;32.20;19.80;;;;;;5027339;28;20418;-68
2022/09/05 11:09:31;;;;;;;343.30;64.37;;;32.20;21.10;;;;;;5029144;28;20991;-68
2022/09/05 11:12:22;;;;;;;2.90;1.73;;;31.70;20.20;;;;;;5042866;28;20468;-72
2022/09/05 11:14:55;;;;;;;1.20;1.00;;;31.30;20.20;;;;;;5042545;28;20536;-68
2022/09/05 11:17:42;;;;;;;1.30;1.27;;;32.00;20.40;;;;;;5037093;28;20430;-67
2022/09/05 11:20:40;;;;;;;1.20;0.90;;;33.10;18.70;;;;;;5046588;28;20458;-69
2022/09/05 11:23:29;;;;;;;262.20;24.33;;;34.40;17.20;;;;;;5043953;28;20427;-67
2022/09/05 11:26:01;;;;;;;1.20;1.10;;;35.10;16.50;;;;;;5044717;28;20505;-68
2022/09/05 11:28:50;;;;;;;160.70;80.53;;;35.80;14.80;;;;;;5056713;28;20427;-68
2022/09/05 11:31:20;;;;;;;1.30;1.00;;;36.10;17.00;;;;;;5070952;28;20440;-68
2022/09/05 11:34:11;;;;;;;1.00;0.90;;;35.80;14.80;;;;;;5070828;28;20797;-68
2022/09/05 11:36:49;;;;;;;0.90;0.90;;;35.80;15.20;;;;;;5065697;28;20437;-67
2022/09/05 11:39:42;;;;;;;1.23;1.00;;;35.80;15.70;;;;;;5066993;28;20549;-67
2022/09/05 11:42:47;;;;;;;1.20;0.90;;;35.50;14.40;;;;;;5069266;28;20484;-67
2022/09/05 11:45:22;;;;;;;0.90;0.90;;;33.30;16.40;;;;;;5065684;28;20837;-68
2022/09/05 11:48:14;;;;;;;1.20;0.90;;;33.50;16.80;;;;;;5068867;28;20863;-67
2022/09/05 11:51:16;;;;;;;1.20;0.90;;;34.80;15.30;;;;;;5069766;28;20449;-67
2022/09/05 11:54:26;;;;;;;1.17;0.90;;;34.40;17.40;;;;;;5042718;28;20491;-67
2022/09/05 11:57:12;;;;;;;1.20;0.80;;;36.70;15.10;;;;;;5068842;28;20433;-67
2022/09/05 12:00:13;;;;;;;1.20;0.90;;;37.30;11.90;;;;;;5069513;28;20525;-68
2022/09/05 12:02:41;;;;;;;1.20;0.90;;;36.20;13.70;;;;;;5002771;28;20458;-67
2022/09/05 12:05:31;;;;;;;1.20;0.90;;;35.40;12.50;;;;;;4998415;28;20523;-67
2022/09/05 12:08:05;;;;;;;1.20;0.90;;;35.80;11.20;;;;;;4999221;28;20990;-67
2022/09/05 12:10:46;;;;;;;1.20;0.80;;;35.50;10.00;;;;;;5009662;28;20958;-67
2022/09/05 12:13:48;;;;;;;1.20;0.90;;;36.90;10.40;;;;;;5001226;28;20435;-67
2022/09/05 12:16:43;;;;;;;1.20;0.87;;;38.00;9.80;;;;;;4999769;28;20825;-68
2022/09/05 12:19:29;;;;;;;1.20;0.80;;;38.30;9.60;;;;;;5007837;28;20451;-68
2022/09/05 12:21:55;;;;;;;1.20;0.80;;;38.50;8.60;;;;;;4997776;28;20443;-68
2022/09/05 12:24:35;;;;;;;1.20;0.80;;;37.40;9.60;;;;;;5003944;28;20436;-67
2022/09/05 12:27:04;;;;;;;1.20;0.90;;;37.00;11.20;;;;;;5007858;28;20522;-67
2022/09/05 12:29:36;;;;;;;1.20;0.90;;;37.60;11.60;;;;;;5009309;28;20490;-68
2022/09/05 12:32:06;;;;;;;1.20;0.90;;;37.40;10.70;;;;;;5008356;28;20439;-68
2022/09/05 12:34:52;;;;;;;1.20;0.90;;;37.80;9.70;;;;;;5001279;28;20451;-68
2022/09/05 12:37:41;;;;;;;1.20;0.90;;;37.40;10.30;;;;;;5003542;28;20436;-68
2022/09/05 12:40:09;;;;;;;1.20;0.80;;;35.40;12.40;;;;;;5042362;28;20991;-67
2022/09/05 12:42:58;;;;;;;1.20;0.87;;;34.10;13.40;;;;;;5054516;28;20437;-68
2022/09/05 12:45:52;;;;;;;1.20;0.90;;;33.80;16.10;;;;;;5065662;28;20571;-68
2022/09/05 12:48:36;;;;;;;1.20;0.90;;;33.20;14.60;;;;;;5038045;28;20422;-67
2022/09/05 12:51:08;;;;;;;1.20;0.90;;;34.40;15.50;;;;;;5046367;28;20493;-67
2022/09/05 12:53:43;;;;;;;1.30;0.90;;;34.80;12.90;;;;;;5045001;28;20629;-67
2022/09/05 12:56:15;;;;;;;1.30;1.00;;;32.90;13.80;;;;;;5037831;28;20426;-67
2022/09/05 12:58:45;;;;;;;1.30;0.90;;;33.20;14.60;;;;;;5033354;28;20515;-68
2022/09/05 13:01:16;;;;;;;1.20;0.90;;;34.10;15.20;;;;;;5047942;28;20496;-68
2022/09/05 13:03:56;;;;;;;1.30;0.90;;;34.50;14.20;;;;;;5037454;28;20434;-68
2022/09/05 13:06:37;;;;;;;1.30;1.00;;;35.40;13.50;;;;;;5046747;28;20667;-68
2022/09/05 13:09:33;;;;;;;1.30;1.00;;;35.60;11.20;;;;;;5047665;28;20480;-67
2022/09/05 13:12:23;;;;;;;1.30;1.00;;;33.80;14.20;;;;;;5040207;28;20844;-67
2022/09/05 13:15:07;;;;;;;1.30;1.00;;;35.20;13.70;;;;;;5047456;28;20432;-68
2022/09/05 13:17:52;;;;;;;1.30;1.03;;;36.00;13.10;;;;;;5033325;28;20438;-68
2022/09/05 13:21:07;;;;;;;1.23;1.00;;;36.20;13.70;;;;;;5039648;28;20454;-68
2022/09/05 13:23:46;;;;;;;1.30;0.90;;;35.90;9.70;;;;;;4978962;28;20429;-67
2022/09/05 13:26:32;;;;;;;1.30;1.00;;;35.20;11.20;;;;;;4983016;28;20461;-67
2022/09/05 13:29:07;;;;;;;1.30;1.00;;;34.70;11.70;;;;;;4981804;28;21209;-68
2022/09/05 13:31:41;;;;;;;1.30;1.00;;;34.10;13.90;;;;;;4980943;28;20471;-68
2022/09/05 13:34:28;;;;;;;1.30;1.00;;;33.50;12.60;;;;;;4986251;28;20428;-68
2022/09/05 13:37:06;;;;;;;1.30;1.03;;;32.30;12.70;;;;;;4989432;28;20440;-68
2022/09/05 13:40:15;;;;;;;1.30;1.00;;;32.90;13.00;;;;;;4982676;28;20469;-68
2022/09/05 13:42:56;;;;;;;1.30;1.00;;;32.80;12.70;;;;;;4988606;28;20452;-68
2022/09/05 13:45:21;;;;;;;1.30;1.00;;;32.20;15.10;;;;;;4989190;28;20421;-67
2022/09/05 13:47:49;;;;;;;1.30;1.00;;;32.30;13.30;;;;;;4980476;28;20440;-68
2022/09/05 13:50:21;;;;;;;1.30;1.00;;;32.00;14.30;;;;;;4984761;28;20191;-68
2022/09/05 13:53:01;;;;;;;1.30;1.00;;;31.80;13.10;;;;;;4970161;28;20450;-68
2022/09/05 13:55:52;;;;;;;1.30;1.00;;;32.10;13.90;;;;;;4974342;28;20429;-68
2022/09/05 13:58:24;;;;;;;1.30;1.00;;;32.60;13.10;;;;;;4989412;28;20482;-68
2022/09/05 14:01:23;;;;;;;1.30;1.00;;;32.90;12.40;;;;;;5063385;28;20459;-68
2022/09/05 14:04:04;;;;;;;1.30;1.00;;;33.10;12.60;;;;;;5063097;28;20520;-68
2022/09/05 14:06:46;;;;;;;1.30;0.90;;;33.90;12.70;;;;;;5063064;28;20425;-68
2022/09/05 14:09:37;;;;;;;1.30;1.00;;;34.10;11.20;;;;;;5051443;28;20909;-68